sensor_id;sensor_type;location;lat;lon;timestamp;pressure;altitude;pressure_sealevel;temperature;humidity
11808;BME280;5961;42.640;23.380;2023-12-28T00:01:13;95080.69;;;8.18;70.33
11808;BME280;5961;42.640;23.380;2023-12-28T00:03:41;95081.84;;;8.12;69.29
11808;BME280;5961;42.640;23.380;2023-12-28T00:06:08;95077.28;;;7.99;69.50
11808;BME280;5961;42.640;23.380;2023-12-28T00:08:35;95082.91;;;7.79;70.45
11808;BME280;5961;42.640;23.380;2023-12-28T00:11:02;95077.41;;;7.19;72.99
11808;BME280;5961;42.640;23.380;2023-12-28T00:13:28;95089.41;;;6.93;74.71
11808;BME280;5961;42.640;23.380;2023-12-28T00:15:55;95086.06;;;6.64;77.49
11808;BME280;5961;42.640;23.380;2023-12-28T00:18:22;95090.78;;;6.43;78.75
11808;BME280;5961;42.640;23.380;2023-12-28T00:20:50;95092.16;;;6.36;78.86
11808;BME280;5961;42.640;23.380;2023-12-28T00:23:17;95097.16;;;6.37;79.11
11808;BME280;5961;42.640;23.380;2023-12-28T00:25:45;95033.41;;;5.96;80.07
11808;BME280;5961;42.640;23.380;2023-12-28T00:28:12;95093.34;;;6.25;80.20
11808;BME280;5961;42.640;23.380;2023-12-28T00:30:39;95057.28;;;5.81;81.30
11808;BME280;5961;42.640;23.380;2023-12-28T00:33:05;95083.22;;;5.69;82.46
11808;BME280;5961;42.640;23.380;2023-12-28T00:35:32;95079.03;;;5.63;83.70
11808;BME280;5961;42.640;23.380;2023-12-28T00:38:00;95093.63;;;5.50;84.32
11808;BME280;5961;42.640;23.380;2023-12-28T00:40:27;95095.09;;;5.28;85.73
11808;BME280;5961;42.640;23.380;2023-12-28T00:42:53;95101.22;;;5.18;87.03
11808;BME280;5961;42.640;23.380;2023-12-28T00:45:20;95099.19;;;5.00;88.63
11808;BME280;5961;42.640;23.380;2023-12-28T00:47:47;95092.13;;;4.90;89.52
11808;BME280;5961;42.640;23.380;2023-12-28T00:50:13;95093.75;;;4.86;90.82
11808;BME280;5961;42.640;23.380;2023-12-28T00:52:41;95106.38;;;4.84;91.05
11808;BME280;5961;42.640;23.380;2023-12-28T00:55:10;95109.03;;;4.79;91.46
11808;BME280;5961;42.640;23.380;2023-12-28T00:57:37;95100.63;;;4.72;92.44
11808;BME280;5961;42.640;23.380;2023-12-28T01:00:05;95105.94;;;4.67;92.54
11808;BME280;5961;42.640;23.380;2023-12-28T01:02:32;95117.50;;;4.66;93.17
11808;BME280;5961;42.640;23.380;2023-12-28T01:04:58;95112.00;;;4.58;93.12
11808;BME280;5961;42.640;23.380;2023-12-28T01:07:25;95116.47;;;4.57;93.45
11808;BME280;5961;42.640;23.380;2023-12-28T01:09:51;95121.75;;;4.62;93.17
11808;BME280;5961;42.640;23.380;2023-12-28T01:12:20;95117.72;;;4.75;91.81
11808;BME280;5961;42.640;23.380;2023-12-28T01:14:46;95110.66;;;4.70;90.88
11808;BME280;5961;42.640;23.380;2023-12-28T01:17:13;95124.84;;;4.79;90.65
11808;BME280;5961;42.640;23.380;2023-12-28T01:19:40;95113.22;;;4.85;89.18
11808;BME280;5961;42.640;23.380;2023-12-28T01:22:06;95112.69;;;4.88;88.71
11808;BME280;5961;42.640;23.380;2023-12-28T01:24:33;95110.28;;;4.97;87.46
11808;BME280;5961;42.640;23.380;2023-12-28T01:27:00;95119.72;;;5.03;87.12
11808;BME280;5961;42.640;23.380;2023-12-28T01:29:27;95114.50;;;4.93;86.89
11808;BME280;5961;42.640;23.380;2023-12-28T01:31:54;95120.81;;;4.97;86.89
11808;BME280;5961;42.640;23.380;2023-12-28T01:34:21;95115.75;;;5.06;85.67
11808;BME280;5961;42.640;23.380;2023-12-28T01:36:48;95111.25;;;5.11;85.41
11808;BME280;5961;42.640;23.380;2023-12-28T01:39:14;95110.16;;;5.17;85.40
11808;BME280;5961;42.640;23.380;2023-12-28T01:41:43;95097.50;;;5.24;84.65
11808;BME280;5961;42.640;23.380;2023-12-28T01:44:10;95103.53;;;5.30;84.20
11808;BME280;5961;42.640;23.380;2023-12-28T01:46:39;95106.66;;;5.32;84.19
11808;BME280;5961;42.640;23.380;2023-12-28T01:49:07;95110.28;;;5.41;83.48
11808;BME280;5961;42.640;23.380;2023-12-28T01:51:34;95055.38;;;5.19;82.07
11808;BME280;5961;42.640;23.380;2023-12-28T01:54:01;95100.50;;;5.51;81.94
11808;BME280;5961;42.640;23.380;2023-12-28T01:56:28;95104.63;;;5.63;81.43
11808;BME280;5961;42.640;23.380;2023-12-28T01:58:55;95104.25;;;5.74;80.90
11808;BME280;5961;42.640;23.380;2023-12-28T02:01:22;95105.53;;;5.82;80.73
11808;BME280;5961;42.640;23.380;2023-12-28T02:03:53;95092.63;;;5.80;80.07
11808;BME280;5961;42.640;23.380;2023-12-28T02:06:22;95090.78;;;5.86;79.88
11808;BME280;5961;42.640;23.380;2023-12-28T02:08:49;95092.66;;;5.75;80.32
11808;BME280;5961;42.640;23.380;2023-12-28T02:11:16;95100.38;;;5.67;80.38
11808;BME280;5961;42.640;23.380;2023-12-28T02:13:43;95099.66;;;5.56;80.97
11808;BME280;5961;42.640;23.380;2023-12-28T02:16:13;95079.84;;;5.25;82.13
11808;BME280;5961;42.640;23.380;2023-12-28T02:18:43;95081.59;;;4.95;84.10
11808;BME280;5961;42.640;23.380;2023-12-28T02:21:12;95092.69;;;4.82;85.69
11808;BME280;5961;42.640;23.380;2023-12-28T02:23:39;95090.91;;;4.68;87.05
11808;BME280;5961;42.640;23.380;2023-12-28T02:26:07;95097.75;;;4.69;86.90
11808;BME280;5961;42.640;23.380;2023-12-28T02:28:34;95087.53;;;4.62;88.52
11808;BME280;5961;42.640;23.380;2023-12-28T02:31:02;95082.25;;;4.62;89.44
11808;BME280;5961;42.640;23.380;2023-12-28T02:33:35;95084.88;;;4.57;90.22
11808;BME280;5961;42.640;23.380;2023-12-28T02:36:07;95095.41;;;4.57;90.49
11808;BME280;5961;42.640;23.380;2023-12-28T02:38:36;95084.66;;;4.49;90.83
11808;BME280;5961;42.640;23.380;2023-12-28T02:41:04;95097.03;;;4.53;91.39
11808;BME280;5961;42.640;23.380;2023-12-28T02:43:32;95101.22;;;4.54;92.00
11808;BME280;5961;42.640;23.380;2023-12-28T02:45:59;95082.25;;;4.62;90.95
11808;BME280;5961;42.640;23.380;2023-12-28T02:48:26;95086.13;;;4.75;90.96
11808;BME280;5961;42.640;23.380;2023-12-28T02:50:52;95092.94;;;4.86;90.67
11808;BME280;5961;42.640;23.380;2023-12-28T02:53:19;95097.34;;;5.01;89.13
11808;BME280;5961;42.640;23.380;2023-12-28T02:55:46;95089.97;;;5.08;89.65
11808;BME280;5961;42.640;23.380;2023-12-28T02:58:12;95079.97;;;5.05;89.76
11808;BME280;5961;42.640;23.380;2023-12-28T03:00:40;95081.03;;;4.98;90.69
11808;BME280;5961;42.640;23.380;2023-12-28T03:03:07;95086.09;;;4.85;90.36
11808;BME280;5961;42.640;23.380;2023-12-28T03:05:34;95077.97;;;4.76;90.65
11808;BME280;5961;42.640;23.380;2023-12-28T03:08:00;95081.22;;;4.58;91.31
11808;BME280;5961;42.640;23.380;2023-12-28T03:10:27;95067.53;;;4.56;92.80
11808;BME280;5961;42.640;23.380;2023-12-28T03:12:54;95072.81;;;4.46;92.91
11808;BME280;5961;42.640;23.380;2023-12-28T03:15:20;95066.19;;;4.59;92.36
11808;BME280;5961;42.640;23.380;2023-12-28T03:17:48;95063.81;;;4.57;91.81
11808;BME280;5961;42.640;23.380;2023-12-28T03:20:15;95061.13;;;4.72;90.97
11808;BME280;5961;42.640;23.380;2023-12-28T03:22:42;95061.34;;;4.81;90.83
11808;BME280;5961;42.640;23.380;2023-12-28T03:25:08;95034.28;;;4.70;90.38
11808;BME280;5961;42.640;23.380;2023-12-28T03:27:35;95067.84;;;5.04;89.49
11808;BME280;5961;42.640;23.380;2023-12-28T03:30:02;95063.28;;;5.14;88.96
11808;BME280;5961;42.640;23.380;2023-12-28T03:32:29;95057.97;;;5.24;88.20
11808;BME280;5961;42.640;23.380;2023-12-28T03:34:57;95066.63;;;5.30;87.65
11808;BME280;5961;42.640;23.380;2023-12-28T03:37:23;95065.56;;;5.31;87.80
11808;BME280;5961;42.640;23.380;2023-12-28T03:39:50;95074.53;;;5.30;87.66
11808;BME280;5961;42.640;23.380;2023-12-28T03:42:17;95093.72;;;5.35;86.92
11808;BME280;5961;42.640;23.380;2023-12-28T03:44:44;95088.75;;;5.29;87.29
11808;BME280;5961;42.640;23.380;2023-12-28T03:47:10;95094.69;;;5.11;88.62
11808;BME280;5961;42.640;23.380;2023-12-28T03:49:37;95098.13;;;5.06;88.64
11808;BME280;5961;42.640;23.380;2023-12-28T03:52:05;95103.22;;;4.82;89.67
11808;BME280;5961;42.640;23.380;2023-12-28T03:54:32;95107.72;;;4.82;90.41
11808;BME280;5961;42.640;23.380;2023-12-28T03:56:58;95116.97;;;4.74;90.44
11808;BME280;5961;42.640;23.380;2023-12-28T03:59:25;95112.50;;;4.60;90.86
11808;BME280;5961;42.640;23.380;2023-12-28T04:01:52;95119.38;;;4.56;92.41
11808;BME280;5961;42.640;23.380;2023-12-28T04:04:18;95101.25;;;4.49;92.53
11808;BME280;5961;42.640;23.380;2023-12-28T04:06:45;95110.97;;;4.59;92.27
11808;BME280;5961;42.640;23.380;2023-12-28T04:09:13;95108.34;;;4.49;93.37
11808;BME280;5961;42.640;23.380;2023-12-28T04:11:40;95102.34;;;4.38;93.58
11808;BME280;5961;42.640;23.380;2023-12-28T04:14:07;95104.16;;;4.32;94.31
11808;BME280;5961;42.640;23.380;2023-12-28T04:16:34;95112.34;;;4.21;95.76
11808;BME280;5961;42.640;23.380;2023-12-28T04:19:01;95101.28;;;4.24;95.73
11808;BME280;5961;42.640;23.380;2023-12-28T04:21:27;95101.81;;;4.31;94.74
11808;BME280;5961;42.640;23.380;2023-12-28T04:23:54;95098.66;;;4.34;94.49
11808;BME280;5961;42.640;23.380;2023-12-28T04:26:22;95106.53;;;4.44;92.85
11808;BME280;5961;42.640;23.380;2023-12-28T04:28:49;95094.66;;;4.41;92.21
11808;BME280;5961;42.640;23.380;2023-12-28T04:31:15;95103.94;;;4.29;91.91
11808;BME280;5961;42.640;23.380;2023-12-28T04:33:42;95101.81;;;4.21;91.63
11808;BME280;5961;42.640;23.380;2023-12-28T04:36:08;95108.19;;;4.05;92.62
11808;BME280;5961;42.640;23.380;2023-12-28T04:38:35;95104.75;;;3.89;93.32
11808;BME280;5961;42.640;23.380;2023-12-28T04:41:04;95102.66;;;3.86;93.64
11808;BME280;5961;42.640;23.380;2023-12-28T04:43:32;95102.91;;;3.84;92.94
11808;BME280;5961;42.640;23.380;2023-12-28T04:46:02;95107.13;;;3.91;93.32
11808;BME280;5961;42.640;23.380;2023-12-28T04:48:28;95108.44;;;3.98;92.68
11808;BME280;5961;42.640;23.380;2023-12-28T04:50:55;95098.72;;;3.99;92.07
11808;BME280;5961;42.640;23.380;2023-12-28T04:53:21;95093.94;;;4.06;91.27
11808;BME280;5961;42.640;23.380;2023-12-28T04:55:48;95100.00;;;4.16;90.47
11808;BME280;5961;42.640;23.380;2023-12-28T04:58:15;95109.19;;;4.19;90.28
11808;BME280;5961;42.640;23.380;2023-12-28T05:00:43;95099.47;;;4.19;89.58
11808;BME280;5961;42.640;23.380;2023-12-28T05:03:10;95100.75;;;4.27;88.17
11808;BME280;5961;42.640;23.380;2023-12-28T05:05:36;95102.88;;;4.35;87.98
11808;BME280;5961;42.640;23.380;2023-12-28T05:08:03;95107.06;;;4.36;87.76
11808;BME280;5961;42.640;23.380;2023-12-28T05:10:30;95109.13;;;4.49;86.59
11808;BME280;5961;42.640;23.380;2023-12-28T05:12:57;95107.53;;;4.58;86.62
11808;BME280;5961;42.640;23.380;2023-12-28T05:15:23;95048.13;;;4.27;86.60
11808;BME280;5961;42.640;23.380;2023-12-28T05:17:51;95113.25;;;4.80;85.89
11808;BME280;5961;42.640;23.380;2023-12-28T05:20:18;95098.50;;;4.79;84.95
11808;BME280;5961;42.640;23.380;2023-12-28T05:22:45;95108.03;;;4.65;84.29
11808;BME280;5961;42.640;23.380;2023-12-28T05:25:11;95115.97;;;4.55;84.37
11808;BME280;5961;42.640;23.380;2023-12-28T05:27:38;95113.38;;;4.30;86.39
11808;BME280;5961;42.640;23.380;2023-12-28T05:30:06;95074.53;;;3.86;88.00
11808;BME280;5961;42.640;23.380;2023-12-28T05:32:33;95108.19;;;3.90;89.73
11808;BME280;5961;42.640;23.380;2023-12-28T05:35:01;95107.91;;;3.71;91.22
11808;BME280;5961;42.640;23.380;2023-12-28T05:37:28;95111.84;;;3.53;92.40
11808;BME280;5961;42.640;23.380;2023-12-28T05:39:55;95115.50;;;3.42;93.05
11808;BME280;5961;42.640;23.380;2023-12-28T05:42:22;95114.47;;;3.38;94.10
11808;BME280;5961;42.640;23.380;2023-12-28T05:44:49;95105.50;;;3.24;94.07
11808;BME280;5961;42.640;23.380;2023-12-28T05:47:16;95117.06;;;3.33;94.53
11808;BME280;5961;42.640;23.380;2023-12-28T05:49:42;95122.06;;;3.40;95.98
11808;BME280;5961;42.640;23.380;2023-12-28T05:52:10;95122.63;;;3.47;95.14
11808;BME280;5961;42.640;23.380;2023-12-28T05:54:40;95126.31;;;3.56;94.45
11808;BME280;5961;42.640;23.380;2023-12-28T05:57:08;95128.94;;;3.71;94.60
11808;BME280;5961;42.640;23.380;2023-12-28T05:59:37;95130.00;;;3.75;93.78
11808;BME280;5961;42.640;23.380;2023-12-28T06:02:04;95137.66;;;3.86;93.40
11808;BME280;5961;42.640;23.380;2023-12-28T06:04:31;95132.88;;;3.94;92.77
11808;BME280;5961;42.640;23.380;2023-12-28T06:06:58;95114.75;;;3.87;91.26
11808;BME280;5961;42.640;23.380;2023-12-28T06:09:26;95135.78;;;4.02;90.80
11808;BME280;5961;42.640;23.380;2023-12-28T06:11:54;95130.78;;;4.01;90.36
11808;BME280;5961;42.640;23.380;2023-12-28T06:16:50;95137.09;;;3.95;90.44
11808;BME280;5961;42.640;23.380;2023-12-28T06:19:16;95134.47;;;3.84;90.96
11808;BME280;5961;42.640;23.380;2023-12-28T06:21:43;95126.84;;;3.93;90.50
11808;BME280;5961;42.640;23.380;2023-12-28T06:24:10;95119.75;;;3.73;90.41
11808;BME280;5961;42.640;23.380;2023-12-28T06:26:40;95105.81;;;3.73;90.41
11808;BME280;5961;42.640;23.380;2023-12-28T06:29:07;95138.16;;;3.99;90.43
11808;BME280;5961;42.640;23.380;2023-12-28T06:31:34;95144.22;;;4.04;89.88
11808;BME280;5961;42.640;23.380;2023-12-28T06:34:02;95134.47;;;4.05;89.62
11808;BME280;5961;42.640;23.380;2023-12-28T06:36:28;95142.88;;;4.07;89.21
11808;BME280;5961;42.640;23.380;2023-12-28T06:38:55;95134.47;;;4.05;89.46
11808;BME280;5961;42.640;23.380;2023-12-28T06:41:22;95150.78;;;4.02;89.67
11808;BME280;5961;42.640;23.380;2023-12-28T06:43:50;95149.75;;;4.08;89.31
11808;BME280;5961;42.640;23.380;2023-12-28T06:46:16;95152.09;;;4.09;89.41
11808;BME280;5961;42.640;23.380;2023-12-28T06:48:43;95162.06;;;4.17;89.03
11808;BME280;5961;42.640;23.380;2023-12-28T06:51:16;95143.41;;;4.14;89.41
11808;BME280;5961;42.640;23.380;2023-12-28T06:53:43;95160.50;;;4.31;88.46
11808;BME280;5961;42.640;23.380;2023-12-28T06:56:09;95159.19;;;4.29;89.28
11808;BME280;5961;42.640;23.380;2023-12-28T06:58:36;95154.72;;;4.24;89.38
11808;BME280;5961;42.640;23.380;2023-12-28T07:01:04;95154.47;;;4.26;89.28
11808;BME280;5961;42.640;23.380;2023-12-28T07:03:32;95156.81;;;4.27;91.08
11808;BME280;5961;42.640;23.380;2023-12-28T07:05:58;95152.31;;;4.33;92.04
11808;BME280;5961;42.640;23.380;2023-12-28T07:08:25;95166.00;;;4.45;93.67
11808;BME280;5961;42.640;23.380;2023-12-28T07:10:51;95161.22;;;4.57;94.51
11808;BME280;5961;42.640;23.380;2023-12-28T07:13:18;95160.69;;;4.70;94.25
11808;BME280;5961;42.640;23.380;2023-12-28T07:15:45;95161.97;;;4.83;94.64
11808;BME280;5961;42.640;23.380;2023-12-28T07:18:13;95158.25;;;4.89;94.11
11808;BME280;5961;42.640;23.380;2023-12-28T07:20:39;95161.09;;;5.03;93.50
11808;BME280;5961;42.640;23.380;2023-12-28T07:23:06;95153.44;;;5.06;93.04
11808;BME280;5961;42.640;23.380;2023-12-28T07:25:34;95111.69;;;4.79;90.65
11808;BME280;5961;42.640;23.380;2023-12-28T07:28:01;95156.34;;;5.10;90.15
11808;BME280;5961;42.640;23.380;2023-12-28T07:30:28;95158.69;;;5.11;89.67
11808;BME280;5961;42.640;23.380;2023-12-28T07:32:54;95114.81;;;4.86;88.79
11808;BME280;5961;42.640;23.380;2023-12-28T07:35:23;95148.94;;;5.12;88.79
11808;BME280;5961;42.640;23.380;2023-12-28T07:37:49;95159.00;;;5.05;88.36
11808;BME280;5961;42.640;23.380;2023-12-28T07:40:16;95162.88;;;5.17;87.40
11808;BME280;5961;42.640;23.380;2023-12-28T07:42:43;95166.88;;;5.10;86.72
11808;BME280;5961;42.640;23.380;2023-12-28T07:45:10;95157.91;;;5.11;86.25
11808;BME280;5961;42.640;23.380;2023-12-28T07:47:36;95166.88;;;5.10;86.75
11808;BME280;5961;42.640;23.380;2023-12-28T07:50:04;95156.84;;;5.17;87.06
11808;BME280;5961;42.640;23.380;2023-12-28T07:52:32;95162.03;;;5.27;87.04
11808;BME280;5961;42.640;23.380;2023-12-28T07:54:59;95159.38;;;5.32;88.01
11808;BME280;5961;42.640;23.380;2023-12-28T07:57:25;95161.44;;;5.45;88.41
11808;BME280;5961;42.640;23.380;2023-12-28T07:59:52;95168.75;;;5.53;88.35
11808;BME280;5961;42.640;23.380;2023-12-28T08:02:19;95172.88;;;5.69;89.33
11808;BME280;5961;42.640;23.380;2023-12-28T08:04:45;95163.88;;;5.75;89.21
11808;BME280;5961;42.640;23.380;2023-12-28T08:07:12;95170.94;;;5.90;88.96
11808;BME280;5961;42.640;23.380;2023-12-28T08:09:40;95159.53;;;5.99;89.00
11808;BME280;5961;42.640;23.380;2023-12-28T08:12:07;95155.28;;;6.03;88.65
11808;BME280;5961;42.640;23.380;2023-12-28T08:14:33;95151.53;;;6.10;88.28
11808;BME280;5961;42.640;23.380;2023-12-28T08:17:00;95164.84;;;6.28;87.28
11808;BME280;5961;42.640;23.380;2023-12-28T08:19:27;95171.88;;;6.38;86.70
11808;BME280;5961;42.640;23.380;2023-12-28T08:21:53;95162.56;;;6.45;85.84
11808;BME280;5961;42.640;23.380;2023-12-28T08:24:20;95165.94;;;6.51;85.61
11808;BME280;5961;42.640;23.380;2023-12-28T08:26:48;95164.34;;;6.55;86.00
11808;BME280;5961;42.640;23.380;2023-12-28T08:29:15;95156.84;;;6.62;86.08
11808;BME280;5961;42.640;23.380;2023-12-28T08:31:43;95153.88;;;6.69;86.71
11808;BME280;5961;42.640;23.380;2023-12-28T08:34:10;95139.13;;;6.68;86.99
11808;BME280;5961;42.640;23.380;2023-12-28T08:36:36;95151.13;;;6.79;87.88
11808;BME280;5961;42.640;23.380;2023-12-28T08:39:03;95154.75;;;6.88;88.44
11808;BME280;5961;42.640;23.380;2023-12-28T08:41:30;95168.22;;;6.86;89.05
11808;BME280;5961;42.640;23.380;2023-12-28T08:43:58;95157.66;;;6.86;89.40
11808;BME280;5961;42.640;23.380;2023-12-28T08:46:25;95143.38;;;6.87;89.32
11808;BME280;5961;42.640;23.380;2023-12-28T08:48:51;95147.03;;;6.91;89.76
11808;BME280;5961;42.640;23.380;2023-12-28T08:51:18;95138.31;;;6.91;90.20
11808;BME280;5961;42.640;23.380;2023-12-28T08:53:46;95118.31;;;6.85;91.48
11808;BME280;5961;42.640;23.380;2023-12-28T08:56:14;95122.84;;;7.03;91.67
11808;BME280;5961;42.640;23.380;2023-12-28T08:58:42;95119.63;;;7.06;90.18
11808;BME280;5961;42.640;23.380;2023-12-28T09:01:15;95111.47;;;7.02;89.63
11808;BME280;5961;42.640;23.380;2023-12-28T09:03:42;95133.81;;;7.15;89.29
11808;BME280;5961;42.640;23.380;2023-12-28T09:06:09;95121.31;;;7.21;89.03
11808;BME280;5961;42.640;23.380;2023-12-28T09:08:35;95119.72;;;7.19;89.30
11808;BME280;5961;42.640;23.380;2023-12-28T09:11:02;95119.16;;;7.23;89.00
11808;BME280;5961;42.640;23.380;2023-12-28T09:13:29;95116.47;;;7.28;88.92
11808;BME280;5961;42.640;23.380;2023-12-28T09:15:56;95115.09;;;7.30;88.59
11808;BME280;5961;42.640;23.380;2023-12-28T09:18:24;95105.88;;;7.28;88.53
11808;BME280;5961;42.640;23.380;2023-12-28T09:20:51;95109.50;;;7.32;88.93
11808;BME280;5961;42.640;23.380;2023-12-28T09:23:17;95105.72;;;7.38;89.06
11808;BME280;5961;42.640;23.380;2023-12-28T09:25:44;95096.50;;;7.35;88.79
11808;BME280;5961;42.640;23.380;2023-12-28T09:28:11;95092.00;;;7.36;88.84
11808;BME280;5961;42.640;23.380;2023-12-28T09:30:38;95101.66;;;7.45;88.90
11808;BME280;5961;42.640;23.380;2023-12-28T09:33:05;95093.38;;;7.52;88.22
11808;BME280;5961;42.640;23.380;2023-12-28T09:35:33;95085.28;;;7.62;88.30
11808;BME280;5961;42.640;23.380;2023-12-28T09:38:01;95089.41;;;7.68;88.03
11808;BME280;5961;42.640;23.380;2023-12-28T09:40:28;95075.63;;;7.71;87.30
11808;BME280;5961;42.640;23.380;2023-12-28T09:43:02;95077.31;;;7.81;86.50
11808;BME280;5961;42.640;23.380;2023-12-28T09:45:30;95076.47;;;7.85;86.99
11808;BME280;5961;42.640;23.380;2023-12-28T09:47:57;95066.59;;;7.91;86.32
11808;BME280;5961;42.640;23.380;2023-12-28T09:50:24;95069.63;;;7.98;87.08
11808;BME280;5961;42.640;23.380;2023-12-28T09:52:53;95068.78;;;8.02;86.49
11808;BME280;5961;42.640;23.380;2023-12-28T09:55:20;95071.41;;;8.02;86.44
11808;BME280;5961;42.640;23.380;2023-12-28T09:57:47;95065.81;;;8.04;86.35
11808;BME280;5961;42.640;23.380;2023-12-28T10:00:14;95059.94;;;8.07;87.32
11808;BME280;5961;42.640;23.380;2023-12-28T10:02:44;95050.94;;;8.08;86.92
11808;BME280;5961;42.640;23.380;2023-12-28T10:05:12;95043.28;;;8.06;87.20
11808;BME280;5961;42.640;23.380;2023-12-28T10:07:41;95005.91;;;7.94;86.83
11808;BME280;5961;42.640;23.380;2023-12-28T10:10:10;95039.19;;;8.14;86.69
11808;BME280;5961;42.640;23.380;2023-12-28T10:12:37;95032.44;;;8.21;86.58
11808;BME280;5961;42.640;23.380;2023-12-28T10:15:05;95031.13;;;8.19;86.40
11808;BME280;5961;42.640;23.380;2023-12-28T10:17:32;95028.69;;;8.22;86.52
11808;BME280;5961;42.640;23.380;2023-12-28T10:19:59;95036.06;;;8.25;86.37
11808;BME280;5961;42.640;23.380;2023-12-28T10:22:30;95020.69;;;8.27;86.16
11808;BME280;5961;42.640;23.380;2023-12-28T10:24:57;95025.91;;;8.33;85.51
11808;BME280;5961;42.640;23.380;2023-12-28T10:27:26;95008.44;;;8.32;86.08
11808;BME280;5961;42.640;23.380;2023-12-28T10:29:53;95011.28;;;8.35;86.03
11808;BME280;5961;42.640;23.380;2023-12-28T10:32:20;95005.69;;;8.37;85.45
11808;BME280;5961;42.640;23.380;2023-12-28T10:34:48;94996.56;;;8.43;85.35
11808;BME280;5961;42.640;23.380;2023-12-28T10:37:17;94988.31;;;8.44;85.09
11808;BME280;5961;42.640;23.380;2023-12-28T10:39:46;94977.44;;;8.46;85.32
11808;BME280;5961;42.640;23.380;2023-12-28T10:42:18;94975.94;;;8.53;85.12
11808;BME280;5961;42.640;23.380;2023-12-28T10:44:51;94966.53;;;8.61;84.88
11808;BME280;5961;42.640;23.380;2023-12-28T10:47:22;94961.13;;;8.66;84.20
11808;BME280;5961;42.640;23.380;2023-12-28T10:49:53;94957.16;;;8.77;83.96
11808;BME280;5961;42.640;23.380;2023-12-28T10:52:26;94963.84;;;8.88;83.79
11808;BME280;5961;42.640;23.380;2023-12-28T10:54:59;94953.59;;;8.95;83.52
11808;BME280;5961;42.640;23.380;2023-12-28T10:57:33;94945.09;;;9.07;83.93
11808;BME280;5961;42.640;23.380;2023-12-28T11:00:09;94940.78;;;9.11;83.01
11808;BME280;5961;42.640;23.380;2023-12-28T11:02:39;94934.84;;;9.27;82.65
11808;BME280;5961;42.640;23.380;2023-12-28T11:05:07;94935.84;;;9.40;81.93
11808;BME280;5961;42.640;23.380;2023-12-28T11:07:35;94937.34;;;9.55;81.45
11808;BME280;5961;42.640;23.380;2023-12-28T11:10:03;94930.69;;;9.66;80.82
11808;BME280;5961;42.640;23.380;2023-12-28T11:12:32;94929.84;;;9.79;79.76
11808;BME280;5961;42.640;23.380;2023-12-28T11:14:59;94917.53;;;9.91;79.11
11808;BME280;5961;42.640;23.380;2023-12-28T11:17:28;94926.50;;;10.04;79.16
11808;BME280;5961;42.640;23.380;2023-12-28T11:19:56;94922.69;;;10.19;78.25
11808;BME280;5961;42.640;23.380;2023-12-28T11:22:25;94910.22;;;10.28;77.75
11808;BME280;5961;42.640;23.380;2023-12-28T11:24:52;94878.00;;;10.21;77.23
11808;BME280;5961;42.640;23.380;2023-12-28T11:27:19;94912.31;;;10.57;76.91
11808;BME280;5961;42.640;23.380;2023-12-28T11:29:47;94900.63;;;10.66;77.15
11808;BME280;5961;42.640;23.380;2023-12-28T11:32:14;94905.16;;;10.83;76.08
11808;BME280;5961;42.640;23.380;2023-12-28T11:34:43;94901.72;;;10.91;75.40
11808;BME280;5961;42.640;23.380;2023-12-28T11:37:13;94901.41;;;11.01;74.35
11808;BME280;5961;42.640;23.380;2023-12-28T11:39:45;94897.81;;;11.14;73.88
11808;BME280;5961;42.640;23.380;2023-12-28T11:42:11;94900.78;;;11.30;72.96
11808;BME280;5961;42.640;23.380;2023-12-28T11:44:39;94893.88;;;11.37;72.46
11808;BME280;5961;42.640;23.380;2023-12-28T11:47:13;94888.50;;;11.54;72.82
11808;BME280;5961;42.640;23.380;2023-12-28T11:49:40;94886.44;;;11.69;71.66
11808;BME280;5961;42.640;23.380;2023-12-28T11:52:09;94888.47;;;11.80;71.10
11808;BME280;5961;42.640;23.380;2023-12-28T11:54:37;94890.44;;;12.00;70.11
11808;BME280;5961;42.640;23.380;2023-12-28T11:57:04;94883.31;;;12.13;68.62
11808;BME280;5961;42.640;23.380;2023-12-28T11:59:31;94878.53;;;12.27;67.60
11808;BME280;5961;42.640;23.380;2023-12-28T12:01:59;94875.06;;;12.35;67.00
11808;BME280;5961;42.640;23.380;2023-12-28T12:04:25;94873.72;;;12.50;66.89
11808;BME280;5961;42.640;23.380;2023-12-28T12:06:52;94870.63;;;12.69;66.00
11808;BME280;5961;42.640;23.380;2023-12-28T12:09:20;94873.16;;;12.86;65.49
11808;BME280;5961;42.640;23.380;2023-12-28T12:11:48;94867.03;;;13.06;64.50
11808;BME280;5961;42.640;23.380;2023-12-28T12:14:14;94861.16;;;13.33;62.02
11808;BME280;5961;42.640;23.380;2023-12-28T12:16:41;94866.56;;;13.57;61.01
11808;BME280;5961;42.640;23.380;2023-12-28T12:19:08;94854.19;;;13.98;59.51
11808;BME280;5961;42.640;23.380;2023-12-28T12:21:36;94837.72;;;14.20;57.75
11808;BME280;5961;42.640;23.380;2023-12-28T12:24:03;94838.81;;;14.55;56.25
11808;BME280;5961;42.640;23.380;2023-12-28T12:26:31;94849.22;;;14.84;55.83
11808;BME280;5961;42.640;23.380;2023-12-28T12:29:01;94847.06;;;15.30;54.50
11808;BME280;5961;42.640;23.380;2023-12-28T12:31:28;94843.97;;;15.87;52.08
11808;BME280;5961;42.640;23.380;2023-12-28T12:33:55;94846.66;;;16.34;50.50
11808;BME280;5961;42.640;23.380;2023-12-28T12:36:21;94840.16;;;16.85;48.10
11808;BME280;5961;42.640;23.380;2023-12-28T12:38:48;94846.09;;;17.33;46.26
11808;BME280;5961;42.640;23.380;2023-12-28T12:41:15;94847.22;;;17.93;44.72
11808;BME280;5961;42.640;23.380;2023-12-28T12:43:43;94855.47;;;18.49;42.33
11808;BME280;5961;42.640;23.380;2023-12-28T12:46:11;94849.53;;;18.92;41.02
11808;BME280;5961;42.640;23.380;2023-12-28T12:48:38;94848.69;;;19.44;39.60
11808;BME280;5961;42.640;23.380;2023-12-28T12:51:06;94854.59;;;19.94;38.76
11808;BME280;5961;42.640;23.380;2023-12-28T12:53:33;94858.81;;;20.32;37.59
11808;BME280;5961;42.640;23.380;2023-12-28T12:56:00;94854.97;;;20.87;36.43
11808;BME280;5961;42.640;23.380;2023-12-28T12:58:27;94849.72;;;21.08;35.43
11808;BME280;5961;42.640;23.380;2023-12-28T13:00:57;94852.22;;;21.56;34.20
11808;BME280;5961;42.640;23.380;2023-12-28T13:03:27;94850.41;;;21.95;33.69
11808;BME280;5961;42.640;23.380;2023-12-28T13:05:54;94850.03;;;22.21;32.69
11808;BME280;5961;42.640;23.380;2023-12-28T13:08:21;94848.91;;;22.47;32.12
11808;BME280;5961;42.640;23.380;2023-12-28T13:10:48;94842.72;;;22.75;31.35
11808;BME280;5961;42.640;23.380;2023-12-28T13:13:15;94839.56;;;23.01;31.06